createdAt,value
2019-02-18T00:02:06.103Z,16.75
2019-02-18T00:04:36.749Z,15.03
2019-02-18T00:07:14.137Z,16.07
2019-02-18T00:09:39.552Z,15.65
2019-02-18T00:12:10.192Z,15.10
2019-02-18T00:14:40.819Z,16.25
2019-02-18T00:17:11.413Z,15.78
2019-02-18T00:19:42.037Z,16.10
2019-02-18T00:22:12.624Z,17.30
2019-02-18T00:24:43.228Z,17.42
2019-02-18T00:27:14.020Z,18.10
2019-02-18T00:29:44.598Z,16.40
2019-02-18T00:32:15.176Z,16.23
2019-02-18T00:34:45.983Z,15.40
2019-02-18T00:37:24.234Z,17.12
2019-02-18T00:39:48.828Z,16.27
2019-02-18T00:42:19.427Z,16.48
2019-02-18T00:44:49.959Z,16.55
2019-02-18T00:47:20.506Z,15.80
2019-02-18T00:49:51.259Z,17.77
2019-02-18T00:52:21.813Z,16.07
2019-02-18T00:54:52.375Z,15.38
2019-02-18T00:57:23.072Z,15.20
2019-02-18T00:59:53.643Z,15.50
2019-02-18T01:02:24.271Z,16.10
2019-02-18T01:04:54.874Z,16.00
2019-02-18T01:07:34.444Z,15.15
2019-02-18T01:09:57.967Z,14.53
2019-02-18T01:12:31.861Z,14.65
2019-02-18T01:15:02.401Z,15.13
2019-02-18T01:17:33.062Z,15.95
2019-02-18T01:20:03.709Z,15.50
2019-02-18T01:22:34.314Z,14.83
2019-02-18T01:25:05.381Z,16.35
2019-02-18T01:27:36.112Z,15.53
2019-02-18T01:30:08.996Z,15.95
2019-02-18T01:32:39.575Z,14.90
2019-02-18T01:35:10.856Z,16.97
2019-02-18T01:37:45.765Z,16.00
2019-02-18T01:40:14.813Z,16.25
2019-02-18T01:42:45.475Z,17.03
2019-02-18T01:45:16.151Z,16.50
2019-02-18T01:47:46.792Z,14.93
2019-02-18T01:50:17.474Z,15.43
2019-02-18T01:52:48.134Z,15.50
2019-02-18T01:55:18.716Z,14.73
2019-02-18T01:57:49.483Z,15.38
2019-02-18T02:00:20.244Z,15.03
2019-02-18T02:02:50.801Z,15.30
2019-02-18T02:05:21.479Z,15.10
2019-02-18T02:07:56.253Z,16.97
2019-02-18T02:10:24.422Z,15.38
2019-02-18T02:13:27.909Z,14.28
2019-02-18T02:15:59.546Z,15.45
2019-02-18T02:18:30.173Z,14.80
2019-02-18T02:21:00.886Z,13.00
2019-02-18T02:23:31.471Z,12.13
2019-02-18T02:26:02.087Z,12.75
2019-02-18T02:28:32.960Z,13.18
2019-02-18T02:31:03.652Z,11.50
2019-02-18T02:33:34.215Z,13.43
2019-02-18T02:36:04.990Z,13.10
2019-02-18T02:38:35.641Z,14.30
2019-02-18T02:41:06.164Z,13.70
2019-02-18T02:43:36.747Z,15.80
2019-02-18T02:46:07.378Z,13.62
2019-02-18T02:48:37.948Z,12.80
2019-02-18T02:51:08.543Z,13.30
2019-02-18T02:53:39.310Z,12.82
2019-02-18T02:56:09.857Z,13.72
2019-02-18T02:58:40.463Z,11.45
2019-02-18T03:01:11.058Z,11.15
2019-02-18T03:03:41.589Z,12.17
2019-02-18T03:06:12.167Z,12.53
2019-02-18T03:08:42.739Z,11.35
2019-02-18T03:11:13.294Z,12.03
2019-02-18T03:13:43.857Z,12.35
2019-02-18T03:16:14.456Z,11.97
2019-02-18T03:18:44.996Z,14.05
2019-02-18T03:21:15.583Z,13.97
2019-02-18T03:23:46.195Z,13.10
2019-02-18T03:26:16.831Z,15.03
2019-02-18T03:29:55.982Z,14.40
2019-02-18T03:32:26.636Z,12.93
2019-02-18T03:34:57.218Z,10.40
2019-02-18T03:37:27.821Z,10.28
2019-02-18T03:39:58.361Z,11.63
2019-02-18T03:42:28.952Z,12.58
2019-02-18T03:44:59.492Z,14.33
2019-02-18T03:47:30.037Z,12.93
2019-02-18T03:50:00.623Z,13.95
2019-02-18T03:52:31.180Z,15.78
2019-02-18T03:55:01.930Z,14.25
2019-02-18T03:57:32.666Z,13.30
2019-02-18T04:00:03.370Z,15.05
2019-02-18T04:02:52.994Z,13.18
2019-02-18T04:05:23.463Z,11.50
2019-02-18T04:07:53.954Z,10.88
2019-02-18T04:10:24.429Z,11.87
2019-02-18T04:12:54.966Z,11.22
2019-02-18T04:15:25.470Z,10.53
2019-02-18T04:17:55.954Z,12.45
2019-02-18T04:20:26.517Z,11.50
2019-02-18T04:22:57.036Z,12.25
2019-02-18T04:25:27.515Z,12.00
2019-02-18T04:27:58.066Z,13.03
2019-02-18T04:30:28.641Z,13.10
2019-02-18T04:32:59.127Z,13.85
2019-02-18T04:35:29.649Z,13.88
2019-02-18T04:38:00.152Z,15.35
2019-02-18T04:40:30.645Z,15.00
2019-02-18T04:43:01.147Z,14.58
2019-02-18T04:45:31.671Z,12.60
2019-02-18T04:48:02.157Z,9.95
2019-02-18T04:50:32.812Z,10.20
2019-02-18T04:53:03.415Z,10.80
2019-02-18T04:55:34.126Z,11.63
2019-02-18T04:58:06.185Z,11.97
2019-02-18T05:00:36.954Z,10.38
2019-02-18T05:03:07.512Z,10.20
2019-02-18T05:05:38.143Z,11.50
2019-02-18T05:08:08.747Z,11.45
2019-02-18T05:10:39.424Z,11.95
2019-02-18T05:13:09.934Z,12.60
2019-02-18T05:15:40.803Z,12.75
2019-02-18T05:18:11.483Z,11.38
2019-02-18T05:20:42.012Z,13.47
2019-02-18T05:23:12.586Z,13.15
2019-02-18T05:25:43.225Z,13.80
2019-02-18T05:28:13.699Z,12.63
2019-02-18T05:30:44.185Z,13.00
2019-02-18T05:33:14.761Z,14.60
2019-02-18T05:35:45.286Z,15.03
2019-02-18T05:38:15.787Z,15.47
2019-02-18T05:40:46.321Z,15.13
2019-02-18T05:43:16.837Z,13.45
2019-02-18T05:45:47.416Z,14.30
2019-02-18T05:48:17.922Z,15.80
2019-02-18T05:50:48.501Z,13.05
2019-02-18T05:53:19.004Z,12.98
2019-02-18T05:55:49.554Z,12.70
2019-02-18T05:58:20.089Z,13.43
2019-02-18T06:00:50.650Z,14.95
2019-02-18T06:03:21.166Z,13.60
2019-02-18T06:05:51.771Z,14.15
2019-02-18T06:08:22.293Z,11.75
2019-02-18T06:10:52.820Z,12.28
2019-02-18T06:13:23.281Z,11.13
2019-02-18T06:15:53.838Z,11.88
2019-02-18T06:18:24.376Z,11.93
2019-02-18T06:20:54.922Z,11.00
2019-02-18T06:23:25.621Z,11.38
2019-02-18T06:25:56.134Z,10.65
2019-02-18T06:28:26.700Z,12.63
2019-02-18T06:30:57.241Z,11.93
2019-02-18T06:33:28.483Z,12.80
2019-02-18T06:35:59.212Z,12.23
2019-02-18T06:38:29.779Z,13.45
2019-02-18T06:41:00.381Z,15.80
2019-02-18T06:43:31.074Z,13.87
2019-02-18T06:46:26.869Z,11.97
2019-02-18T06:49:05.177Z,10.70
2019-02-18T06:51:35.711Z,9.38
2019-02-18T06:54:06.317Z,11.20
2019-02-18T06:57:11.089Z,11.20
2019-02-18T06:59:45.646Z,11.63
2019-02-18T07:02:50.554Z,11.43
2019-02-18T07:05:43.879Z,12.78
2019-02-18T07:08:21.054Z,10.40
2019-02-18T07:11:01.143Z,10.47
2019-02-18T07:13:31.751Z,10.43
2019-02-18T07:16:02.219Z,10.90
2019-02-18T07:18:32.743Z,9.93
2019-02-18T07:21:03.922Z,10.15
2019-02-18T07:23:34.790Z,12.57
2019-02-18T07:26:05.469Z,12.82
2019-02-18T07:28:36.133Z,14.35
2019-02-18T07:31:18.687Z,15.25
2019-02-18T07:33:49.447Z,13.60
2019-02-18T07:36:23.083Z,13.13
2019-02-18T07:38:54.202Z,15.00
2019-02-18T07:41:25.371Z,15.58
2019-02-18T07:43:56.188Z,15.70
2019-02-18T07:46:27.063Z,14.70
2019-02-18T07:48:58.569Z,14.35
2019-02-18T07:51:29.467Z,13.68
2019-02-18T07:54:00.353Z,14.50
2019-02-18T07:56:31.087Z,15.93
2019-02-18T07:59:02.233Z,15.70
2019-02-18T08:01:32.788Z,16.75
2019-02-18T08:04:03.371Z,15.33
2019-02-18T08:06:37.260Z,15.38
2019-02-18T08:09:08.667Z,14.25
2019-02-18T08:11:39.192Z,13.80
2019-02-18T08:14:09.698Z,14.80
2019-02-18T08:16:40.310Z,13.00
2019-02-18T08:19:10.901Z,13.43
2019-02-18T08:21:41.430Z,13.20
2019-02-18T08:24:14.837Z,12.47
2019-02-18T08:26:45.373Z,12.65
2019-02-18T08:29:15.903Z,13.18
2019-02-18T08:31:46.525Z,13.58
2019-02-18T08:34:17.133Z,13.32
2019-02-18T08:36:47.761Z,13.07
2019-02-18T08:39:18.321Z,12.82
2019-02-18T08:41:48.823Z,13.83
2019-02-18T08:44:19.335Z,13.20
2019-02-18T08:46:49.909Z,13.03
2019-02-18T08:49:20.484Z,12.93
2019-02-18T08:51:51.013Z,13.20
2019-02-18T08:54:21.656Z,12.03
2019-02-18T08:56:52.218Z,12.45
2019-02-18T08:59:22.785Z,13.15
2019-02-18T09:01:53.338Z,13.38
2019-02-18T09:04:23.892Z,12.93
2019-02-18T09:06:54.417Z,12.23
2019-02-18T09:09:25.015Z,11.48
2019-02-18T09:11:55.511Z,11.93
2019-02-18T09:14:26.080Z,11.80
2019-02-18T09:16:56.713Z,12.00
2019-02-18T09:19:27.228Z,12.03
2019-02-18T09:22:19.721Z,11.37
2019-02-18T09:24:56.926Z,11.08
2019-02-18T09:27:27.413Z,10.40
2019-02-18T09:29:57.915Z,11.53
2019-02-18T09:32:28.502Z,11.25
2019-02-18T09:35:02.109Z,11.63
2019-02-18T09:37:31.372Z,10.72
2019-02-18T09:40:01.910Z,10.58
2019-02-18T09:42:32.599Z,11.40
2019-02-18T09:45:03.136Z,10.75
2019-02-18T09:47:54.320Z,11.63
2019-02-18T09:50:28.871Z,11.65
2019-02-18T09:52:59.543Z,11.00
2019-02-18T09:55:30.177Z,11.30
2019-02-18T09:58:00.917Z,10.90
2019-02-18T10:00:31.531Z,11.40
2019-02-18T10:03:02.036Z,11.33
2019-02-18T10:05:32.540Z,11.00
2019-02-18T10:08:03.124Z,10.58
2019-02-18T10:10:33.604Z,11.75
2019-02-18T10:13:04.201Z,11.60
2019-02-18T10:15:34.687Z,11.40
2019-02-18T10:18:05.219Z,10.88
2019-02-18T10:20:35.717Z,10.20
2019-02-18T10:23:06.239Z,11.28
2019-02-18T10:25:36.732Z,10.80
2019-02-18T10:28:07.311Z,10.35
2019-02-18T10:30:37.848Z,10.60
2019-02-18T10:33:08.326Z,11.35
2019-02-18T10:35:38.788Z,11.10
2019-02-18T10:38:09.401Z,10.30
2019-02-18T10:40:39.828Z,10.67
2019-02-18T10:43:10.313Z,10.80
2019-02-18T10:45:40.846Z,9.60
2019-02-18T10:48:11.347Z,9.90
2019-02-18T10:50:42.270Z,10.53
2019-02-18T10:53:12.749Z,10.48
2019-02-18T10:55:43.258Z,9.68
2019-02-18T10:58:13.740Z,9.60
2019-02-18T11:00:44.233Z,9.83
2019-02-18T11:03:14.745Z,9.68
2019-02-18T11:05:45.383Z,8.93
2019-02-18T11:08:15.860Z,9.48
2019-02-18T11:10:46.406Z,9.70
2019-02-18T11:13:16.894Z,9.08
2019-02-18T11:15:47.440Z,8.58
2019-02-18T11:18:17.914Z,9.20
2019-02-18T11:20:48.385Z,8.80
2019-02-18T11:23:18.959Z,9.00
2019-02-18T11:25:49.626Z,9.28
2019-02-18T11:28:20.974Z,9.30
2019-02-18T11:30:51.496Z,7.90
2019-02-18T11:33:21.977Z,8.58
2019-02-18T11:35:52.463Z,9.43
2019-02-18T11:38:22.996Z,9.58
2019-02-18T11:40:53.501Z,8.50
2019-02-18T11:43:23.974Z,9.25
2019-02-18T11:45:54.489Z,9.20
2019-02-18T11:48:24.988Z,8.90
2019-02-18T11:50:55.775Z,9.25
2019-02-18T11:53:26.319Z,8.40
2019-02-18T11:55:56.787Z,9.35
2019-02-18T11:58:27.274Z,9.65
2019-02-18T12:00:58.613Z,11.12
2019-02-18T12:03:29.288Z,10.13
2019-02-18T12:05:59.696Z,10.48
2019-02-18T12:08:30.240Z,11.25
2019-02-18T12:11:00.754Z,11.30
2019-02-18T12:13:31.215Z,9.73
2019-02-18T12:16:01.805Z,10.93
2019-02-18T12:18:32.493Z,10.43
2019-02-18T12:21:03.026Z,10.55
2019-02-18T12:23:33.542Z,10.80
2019-02-18T12:26:04.035Z,11.43
2019-02-18T12:28:39.154Z,11.15
2019-02-18T12:31:10.056Z,11.83
2019-02-18T12:33:40.465Z,11.78
2019-02-18T12:36:10.985Z,10.40
2019-02-18T12:38:41.477Z,10.95
2019-02-18T12:41:11.944Z,11.70
2019-02-18T12:43:42.502Z,10.55
2019-02-18T12:46:15.664Z,11.10
2019-02-18T12:48:45.247Z,10.90
2019-02-18T12:51:15.784Z,10.20
2019-02-18T12:53:46.518Z,10.98
2019-02-18T12:56:17.078Z,11.13
2019-02-18T12:58:54.413Z,11.80
2019-02-18T13:01:20.235Z,10.65
2019-02-18T13:03:50.713Z,11.48
2019-02-18T13:06:21.216Z,13.70
2019-02-18T13:08:51.680Z,10.90
2019-02-18T13:11:22.169Z,10.50
2019-02-18T13:13:53.002Z,11.20
2019-02-18T13:16:23.470Z,10.20
2019-02-18T13:18:53.957Z,10.78
2019-02-18T13:21:24.474Z,11.50
2019-02-18T13:23:55.656Z,11.57
2019-02-18T13:26:26.164Z,11.10
2019-02-18T13:28:57.054Z,10.32
2019-02-18T13:31:27.535Z,11.63
2019-02-18T13:33:58.010Z,10.43
2019-02-18T13:36:28.594Z,10.55
2019-02-18T13:38:59.086Z,10.70
2019-02-18T13:41:29.546Z,11.33
2019-02-18T13:44:00.016Z,11.03
2019-02-18T13:46:30.576Z,10.90
2019-02-18T13:49:01.052Z,11.25
2019-02-18T13:51:31.607Z,11.12
2019-02-18T13:54:02.040Z,11.30
2019-02-18T13:56:32.798Z,10.80
2019-02-18T13:59:03.356Z,11.30
2019-02-18T14:01:33.982Z,11.50
2019-02-18T14:04:04.465Z,12.37
2019-02-18T14:06:35.898Z,11.78
2019-02-18T14:09:07.161Z,11.80
2019-02-18T14:11:37.727Z,11.60
2019-02-18T14:14:08.256Z,11.60
2019-02-18T14:16:38.754Z,11.63
2019-02-18T14:19:09.282Z,11.68
2019-02-18T14:21:39.794Z,11.40
2019-02-18T14:24:10.484Z,11.65
2019-02-18T14:26:40.939Z,12.03
2019-02-18T14:29:12.122Z,12.07
2019-02-18T14:31:42.590Z,10.37
2019-02-18T14:34:13.153Z,11.30
2019-02-18T14:36:44.085Z,11.57
2019-02-18T14:39:22.720Z,12.43
2019-02-18T14:41:53.252Z,11.55
2019-02-18T14:44:24.194Z,11.10
2019-02-18T14:46:54.635Z,11.10
2019-02-18T14:49:25.470Z,11.95
2019-02-18T14:51:56.035Z,10.75
2019-02-18T14:54:26.626Z,10.48
2019-02-18T14:56:57.178Z,11.53
2019-02-18T14:59:27.630Z,10.82
2019-02-18T15:01:58.547Z,11.10
2019-02-18T15:04:29.069Z,11.60
2019-02-18T15:06:59.527Z,11.05
2019-02-18T15:09:30.012Z,10.50
2019-02-18T15:12:00.561Z,11.78
2019-02-18T15:14:31.119Z,10.90
2019-02-18T15:17:01.628Z,10.32
2019-02-18T15:19:32.157Z,12.20
2019-02-18T15:22:02.625Z,10.70
2019-02-18T15:24:33.154Z,11.22
2019-02-18T15:27:03.687Z,11.38
2019-02-18T15:29:34.464Z,10.90
2019-02-18T15:32:05.053Z,11.20
2019-02-18T15:34:35.609Z,11.25
2019-02-18T15:37:06.075Z,10.53
2019-02-18T15:39:36.614Z,10.63
2019-02-18T15:42:07.120Z,11.60
2019-02-18T15:44:37.664Z,11.43
2019-02-18T15:47:08.208Z,11.30
2019-02-18T15:49:38.901Z,10.80
2019-02-18T15:52:09.992Z,11.70
2019-02-18T15:54:40.474Z,11.15
2019-02-18T15:57:10.997Z,11.53
2019-02-18T15:59:41.431Z,10.88
2019-02-18T16:02:11.907Z,9.70
2019-02-18T16:04:42.598Z,10.03
2019-02-18T16:07:13.186Z,10.80
2019-02-18T16:09:44.090Z,10.98
2019-02-18T16:12:14.932Z,10.28
2019-02-18T16:14:45.405Z,11.00
2019-02-18T16:17:15.909Z,11.15
2019-02-18T16:19:46.515Z,10.13
2019-02-18T16:22:17.091Z,9.55
2019-02-18T16:24:47.701Z,9.75
2019-02-18T16:27:18.304Z,10.20
2019-02-18T16:29:48.872Z,10.40
2019-02-18T16:32:19.378Z,10.28
2019-02-18T16:34:49.909Z,10.40
2019-02-18T16:37:20.780Z,9.63
2019-02-18T16:39:51.318Z,9.20
2019-02-18T16:42:21.844Z,10.90
2019-02-18T16:44:52.633Z,10.10
2019-02-18T16:47:23.159Z,11.08
2019-02-18T16:49:53.997Z,9.60
2019-02-18T16:52:24.614Z,9.78
2019-02-18T16:54:55.150Z,10.07
2019-02-18T16:57:25.740Z,10.00
2019-02-18T16:59:56.236Z,9.48
2019-02-18T17:02:46.250Z,10.48
2019-02-18T17:05:16.777Z,9.78
2019-02-18T17:07:47.296Z,9.30
2019-02-18T17:10:17.913Z,9.10
2019-02-18T17:12:48.805Z,8.18
2019-02-18T17:15:19.348Z,10.28
2019-02-18T17:17:49.849Z,9.53
2019-02-18T17:20:20.350Z,11.83
2019-02-18T17:22:50.907Z,10.15
2019-02-18T17:25:21.479Z,9.80
2019-02-18T17:27:51.966Z,9.20
2019-02-18T17:30:22.482Z,9.73
2019-02-18T17:32:53.051Z,11.07
2019-02-18T17:35:23.605Z,9.93
2019-02-18T17:37:54.127Z,11.00
2019-02-18T17:40:25.112Z,10.85
2019-02-18T17:42:55.649Z,9.55
2019-02-18T17:45:26.170Z,9.73
2019-02-18T17:47:56.943Z,9.03
2019-02-18T17:50:27.504Z,10.50
2019-02-18T17:52:58.246Z,10.23
2019-02-18T17:55:28.808Z,10.75
2019-02-18T17:57:59.319Z,10.80
2019-02-18T18:00:31.811Z,10.78
2019-02-18T18:03:02.395Z,10.00
2019-02-18T18:05:32.926Z,9.75
2019-02-18T18:08:03.870Z,10.77
2019-02-18T18:10:34.498Z,11.30
2019-02-18T18:13:05.139Z,11.85
2019-02-18T18:15:35.672Z,10.58
2019-02-18T18:18:06.235Z,11.60
2019-02-18T18:20:37.287Z,10.15
2019-02-18T18:23:07.888Z,11.18
2019-02-18T18:25:38.491Z,11.13
2019-02-18T18:28:09.079Z,11.00
2019-02-18T18:30:39.746Z,11.45
2019-02-18T18:33:10.277Z,12.18
2019-02-18T18:35:40.815Z,12.28
2019-02-18T18:38:13.208Z,10.72
2019-02-18T18:40:43.756Z,11.43
2019-02-18T18:43:14.344Z,11.43
2019-02-18T18:45:44.872Z,9.87
2019-02-18T18:48:15.538Z,10.80
2019-02-18T18:50:46.103Z,9.85
2019-02-18T18:53:16.735Z,10.18
2019-02-18T18:55:47.367Z,10.50
2019-02-18T18:58:17.993Z,10.00
2019-02-18T19:00:49.148Z,10.23
2019-02-18T19:03:19.872Z,10.70
2019-02-18T19:05:50.466Z,10.08
2019-02-18T19:08:21.114Z,8.70
2019-02-18T19:10:51.658Z,10.08
2019-02-18T19:13:22.519Z,10.47
2019-02-18T19:15:53.107Z,10.55
2019-02-18T19:18:23.664Z,9.80
2019-02-18T19:20:54.187Z,10.00
2019-02-18T19:23:24.795Z,10.30
2019-02-18T19:25:55.593Z,9.80
2019-02-18T19:28:26.180Z,10.40
2019-02-18T19:30:56.802Z,10.80
2019-02-18T19:33:27.437Z,10.50
2019-02-18T19:35:58.007Z,9.27
2019-02-18T19:38:28.685Z,10.20
2019-02-18T19:40:59.245Z,9.58
2019-02-18T19:43:29.858Z,10.05
2019-02-18T19:46:00.447Z,10.28
2019-02-18T19:48:31.005Z,11.28
2019-02-18T19:51:01.635Z,11.25
2019-02-18T19:53:32.193Z,10.10
2019-02-18T19:56:02.691Z,10.40
2019-02-18T19:58:33.283Z,10.90
2019-02-18T20:01:03.883Z,9.78
2019-02-18T20:03:34.525Z,10.78
2019-02-18T20:06:05.291Z,9.80
2019-02-18T20:08:35.845Z,11.50
2019-02-18T20:11:06.384Z,10.10
2019-02-18T20:13:36.967Z,10.80
2019-02-18T20:16:07.595Z,10.45
2019-02-18T20:18:38.432Z,10.90
2019-02-18T20:21:09.005Z,11.33
2019-02-18T20:23:39.641Z,10.30
2019-02-18T20:26:10.182Z,10.85
2019-02-18T20:28:40.776Z,10.40
2019-02-18T20:31:11.597Z,11.40
2019-02-18T20:33:42.154Z,11.15
2019-02-18T20:36:12.661Z,11.30
2019-02-18T20:38:43.275Z,10.43
2019-02-18T20:41:13.817Z,10.25
2019-02-18T20:43:44.657Z,11.20
2019-02-18T20:46:15.325Z,10.55
2019-02-18T20:48:46.731Z,11.83
2019-02-18T20:51:17.362Z,11.70
2019-02-18T20:53:47.850Z,11.85
2019-02-18T20:56:18.359Z,11.97
2019-02-18T20:58:49.024Z,12.28
2019-02-18T21:01:19.592Z,11.67
2019-02-18T21:03:50.182Z,11.08
2019-02-18T21:06:20.776Z,11.93
2019-02-18T21:08:51.328Z,11.70
2019-02-18T21:11:22.086Z,11.43
2019-02-18T21:13:52.796Z,11.40
2019-02-18T21:16:23.318Z,12.50
2019-02-18T21:18:53.868Z,12.58
2019-02-18T21:21:24.464Z,13.22
2019-02-18T21:23:54.966Z,12.10
2019-02-18T21:26:25.495Z,11.38
2019-02-18T21:28:56.063Z,11.90
2019-02-18T21:31:26.637Z,12.20
2019-02-18T21:33:57.114Z,11.75
2019-02-18T21:36:27.743Z,11.40
2019-02-18T21:38:58.304Z,11.73
2019-02-18T21:41:28.825Z,11.73
2019-02-18T21:43:59.407Z,11.78
2019-02-18T21:46:30.013Z,11.70
2019-02-18T21:49:00.578Z,11.68
2019-02-18T21:51:31.374Z,11.70
2019-02-18T21:54:01.958Z,11.18
2019-02-18T21:56:32.454Z,11.78
2019-02-18T21:59:03.048Z,12.03
2019-02-18T22:01:33.558Z,12.23
2019-02-18T22:04:04.154Z,11.70
2019-02-18T22:06:34.685Z,12.60
2019-02-18T22:09:06.699Z,10.82
2019-02-18T22:11:37.205Z,11.83
2019-02-18T22:14:07.706Z,13.10
2019-02-18T22:16:38.243Z,11.40
2019-02-18T22:19:08.946Z,12.20
2019-02-18T22:21:39.430Z,11.20
2019-02-18T22:24:09.984Z,10.70
2019-02-18T22:26:40.490Z,11.88
2019-02-18T22:29:11.099Z,10.95
2019-02-18T22:31:41.554Z,11.53
2019-02-18T22:34:12.332Z,10.85
2019-02-18T22:36:42.901Z,11.25
2019-02-18T22:39:13.419Z,10.70
2019-02-18T22:41:43.964Z,10.98
2019-02-18T22:44:14.406Z,9.95
2019-02-18T22:46:44.898Z,11.85
2019-02-18T22:49:15.359Z,10.15
2019-02-18T22:51:45.909Z,11.50
2019-02-18T22:54:16.372Z,11.45
2019-02-18T22:56:46.875Z,11.35
2019-02-18T22:59:17.391Z,10.90
2019-02-18T23:01:48.151Z,11.55
2019-02-18T23:04:18.637Z,12.20
2019-02-18T23:06:49.159Z,12.45
2019-02-18T23:09:19.654Z,11.50
2019-02-18T23:11:50.109Z,11.40
2019-02-18T23:14:20.577Z,11.35
2019-02-18T23:16:51.244Z,12.10
2019-02-18T23:19:21.703Z,11.00
2019-02-18T23:21:52.173Z,11.05
2019-02-18T23:24:24.083Z,11.03
2019-02-18T23:26:54.464Z,11.12
2019-02-18T23:29:24.957Z,11.03
2019-02-18T23:31:55.443Z,11.80
2019-02-18T23:34:29.446Z,11.88
2019-02-18T23:36:59.914Z,11.28
2019-02-18T23:39:30.368Z,10.70
2019-02-18T23:42:00.852Z,11.73
2019-02-18T23:44:31.341Z,11.60
2019-02-18T23:47:01.781Z,12.25
2019-02-18T23:49:32.274Z,11.70
2019-02-18T23:52:02.755Z,11.80
2019-02-18T23:54:33.254Z,11.85
2019-02-18T23:57:03.763Z,11.90
2019-02-18T23:59:34.299Z,11.48
